Time;durP1;ratioP1;P1;durP2;ratioP2;P2;SDS_P1;SDS_P2;PMS_P1;PMS_P2;Temp;Humidity;BMP_temperature;BMP_pressure;BME280_temperature;BME280_humidity;BME280_pressure;Samples;Min_cycle;Max_cycle;Signal;HPM_P1;HPM_P2
2022/03/17 00:00:37;;;;;;;20.27;18.17;;;;;;;3.79;100.00;97819.34;4959592;28;20917;-52
2022/03/17 00:03:07;;;;;;;21.80;18.07;;;;;;;3.75;100.00;97816.97;4982877;28;20201;-56
2022/03/17 00:05:36;;;;;;;24.17;17.87;;;;;;;3.78;100.00;97815.06;4975416;28;20630;-53
2022/03/17 00:08:04;;;;;;;21.33;18.93;;;;;;;3.84;100.00;97799.66;4975579;28;20227;-55
2022/03/17 00:10:33;;;;;;;21.83;19.57;;;;;;;3.92;100.00;97799.00;4981102;28;20326;-55
2022/03/17 00:13:01;;;;;;;24.77;21.00;;;;;;;3.85;100.00;97797.88;4973809;28;20264;-56
2022/03/17 00:15:29;;;;;;;20.47;17.13;;;;;;;3.86;100.00;97794.28;4985735;28;21185;-57
2022/03/17 00:17:58;;;;;;;20.70;18.57;;;;;;;3.91;100.00;97794.72;4954736;28;20776;-55
2022/03/17 00:20:28;;;;;;;23.83;19.53;;;;;;;3.80;100.00;97792.16;4988285;28;20280;-54
2022/03/17 00:22:56;;;;;;;21.53;18.43;;;;;;;3.78;100.00;97788.84;4962406;28;20314;-58
2022/03/17 00:25:25;;;;;;;20.53;18.43;;;;;;;3.76;100.00;97795.03;4982570;28;20303;-53
2022/03/17 00:27:53;;;;;;;21.50;19.30;;;;;;;3.60;100.00;97778.94;4989900;28;20232;-54
2022/03/17 00:30:21;;;;;;;20.93;18.73;;;;;;;3.69;100.00;97786.03;4970007;28;20211;-56
2022/03/17 00:32:50;;;;;;;21.70;19.50;;;;;;;3.73;100.00;97783.97;4957915;28;20213;-55
2022/03/17 00:35:38;;;;;;;23.93;18.57;;;;;;;3.73;100.00;97781.34;4979528;28;20235;-54
2022/03/17 00:38:10;;;;;;;22.03;19.70;;;;;;;3.72;100.00;97785.78;4958818;28;20242;-54
2022/03/17 00:40:39;;;;;;;19.87;17.83;;;;;;;3.72;100.00;97795.41;4967906;28;20673;-54
2022/03/17 00:43:09;;;;;;;20.87;18.67;;;;;;;3.48;100.00;97793.84;4998157;28;20232;-56
2022/03/17 00:45:37;;;;;;;22.80;20.40;;;;;;;3.42;100.00;97789.91;4968661;28;20701;-56
2022/03/17 00:48:06;;;;;;;22.90;19.03;;;;;;;3.50;100.00;97786.69;4953208;28;22552;-53
2022/03/17 00:50:34;;;;;;;22.20;18.77;;;;;;;3.58;100.00;97793.91;4983394;28;20237;-55
2022/03/17 00:53:03;;;;;;;23.57;20.63;;;;;;;3.55;100.00;97794.16;4971344;28;20324;-57
2022/03/17 00:55:33;;;;;;;21.73;19.07;;;;;;;3.66;100.00;97793.28;4971980;28;20220;-53
2022/03/17 00:58:01;;;;;;;21.20;18.80;;;;;;;3.56;100.00;97791.44;4988017;28;20263;-54
2022/03/17 01:00:29;;;;;;;20.73;18.53;;;;;;;3.38;100.00;97800.75;4975039;28;20385;-54
2022/03/17 01:02:58;;;;;;;21.30;19.07;;;;;;;3.53;100.00;97809.19;4952068;28;20318;-56
2022/03/17 01:05:26;;;;;;;22.30;19.13;;;;;;;3.44;100.00;97813.38;4984368;28;20223;-55
2022/03/17 01:07:55;;;;;;;21.60;19.30;;;;;;;3.55;100.00;97807.25;4982536;28;20245;-53
2022/03/17 01:10:23;;;;;;;22.97;20.20;;;;;;;3.43;100.00;97811.72;4971775;28;20329;-54
2022/03/17 01:12:53;;;;;;;21.63;19.43;;;;;;;3.52;100.00;97797.88;4984428;28;20232;-53
2022/03/17 01:15:21;;;;;;;22.73;20.30;;;;;;;3.44;100.00;97810.78;4986479;28;20319;-56
2022/03/17 01:17:51;;;;;;;25.40;21.30;;;;;;;3.40;100.00;97809.31;4964840;28;20231;-56
2022/03/17 01:20:19;;;;;;;24.60;20.53;;;;;;;3.31;100.00;97803.88;4953717;28;20562;-53
2022/03/17 01:22:47;;;;;;;22.57;20.27;;;;;;;3.41;100.00;97788.25;4991992;28;20207;-56
2022/03/17 01:25:15;;;;;;;24.77;22.27;;;;;;;3.33;100.00;97795.91;4947881;28;20593;-57
2022/03/17 01:27:43;;;;;;;21.37;19.13;;;;;;;3.19;100.00;97797.00;4986786;28;20228;-55
2022/03/17 01:30:13;;;;;;;24.73;20.30;;;;;;;3.24;100.00;97794.84;4990576;28;20204;-56
2022/03/17 01:32:41;;;;;;;23.27;19.83;;;;;;;3.13;100.00;97793.06;4969250;28;20208;-54
2022/03/17 01:35:11;;;;;;;24.47;20.37;;;;;;;3.13;100.00;97787.03;4954212;28;20215;-54
2022/03/17 01:37:39;;;;;;;25.33;20.57;;;;;;;2.81;100.00;97785.16;4987575;28;20217;-56
2022/03/17 01:40:08;;;;;;;24.40;21.63;;;;;;;2.89;100.00;97788.84;4973139;28;20201;-56
2022/03/17 01:42:36;;;;;;;23.57;20.07;;;;;;;2.81;100.00;97777.31;4997076;28;21212;-55
2022/03/17 01:45:05;;;;;;;24.93;20.93;;;;;;;2.75;100.00;97786.47;4992034;28;20203;-53
2022/03/17 01:47:36;;;;;;;24.07;20.20;;;;;;;2.80;100.00;97779.06;4971113;28;20659;-53
2022/03/17 01:50:08;;;;;;;24.47;20.70;;;;;;;2.70;100.00;97762.44;4944362;28;20217;-53
2022/03/17 01:52:37;;;;;;;24.40;20.17;;;;;;;2.68;100.00;97780.03;4985530;28;20210;-57
2022/03/17 01:55:06;;;;;;;23.50;19.40;;;;;;;2.80;100.00;97776.44;4986604;28;20201;-54
2022/03/17 01:57:34;;;;;;;26.70;22.00;;;;;;;2.87;100.00;97779.44;4969734;28;20227;-53
2022/03/17 02:00:04;;;;;;;23.30;20.70;;;;;;;2.57;100.00;97791.34;4990620;28;20207;-53
2022/03/17 02:02:32;;;;;;;24.47;21.40;;;;;;;2.52;100.00;97790.84;4988030;28;20204;-53
2022/03/17 02:05:03;;;;;;;21.93;19.67;;;;;;;2.64;100.00;97791.69;4968815;28;20987;-53
2022/03/17 02:07:32;;;;;;;24.40;20.87;;;;;;;2.42;100.00;97782.88;4951277;28;20282;-54
2022/03/17 02:10:00;;;;;;;24.10;20.93;;;;;;;2.27;100.00;97788.34;4982356;28;20213;-57
2022/03/17 02:15:14;;;;;;;24.97;22.00;;;;;;;2.45;100.00;97788.72;4987627;28;20693;-50
2022/03/17 02:17:43;;;;;;;25.90;20.90;;;;;;;2.39;100.00;97781.34;4986239;28;21208;-57
2022/03/17 02:20:15;;;;;;;26.07;21.73;;;;;;;2.36;100.00;97776.34;4964721;28;20211;-50
2022/03/17 02:22:45;;;;;;;24.13;21.70;;;;;;;2.38;100.00;97784.06;4969557;28;20213;-53
2022/03/17 02:25:35;;;;;;;25.63;22.90;;;;;;;2.74;100.00;97784.78;4983484;28;20236;-54
2022/03/17 02:28:04;;;;;;;25.80;22.07;;;;;;;2.62;100.00;97765.63;4969332;28;20225;-53
2022/03/17 02:30:35;;;;;;;28.33;22.40;;;;;;;2.59;100.00;97765.88;4985612;28;20864;-53
2022/03/17 02:33:04;;;;;;;24.47;21.90;;;;;;;2.37;100.00;97766.69;4986141;28;20709;-55
2022/03/17 02:35:32;;;;;;;25.50;22.10;;;;;;;2.64;100.00;97773.38;4966868;28;20202;-50
2022/03/17 02:38:02;;;;;;;27.53;22.93;;;;;;;2.62;100.00;97767.44;4956273;28;20229;-50
2022/03/17 02:40:31;;;;;;;23.20;20.70;;;;;;;2.57;100.00;97765.16;4985550;28;20197;-52
2022/03/17 02:42:59;;;;;;;23.03;20.63;;;;;;;2.61;100.00;97763.97;4971730;28;20205;-51
2022/03/17 02:45:27;;;;;;;25.87;21.83;;;;;;;2.46;100.00;97753.75;4986387;28;20316;-55
2022/03/17 02:47:55;;;;;;;27.17;21.17;;;;;;;2.55;100.00;97752.22;4985747;28;20384;-50
2022/03/17 02:50:24;;;;;;;24.43;21.13;;;;;;;2.39;100.00;97752.56;4969267;28;20208;-54
2022/03/17 02:52:52;;;;;;;28.70;22.73;;;;;;;2.40;100.00;97750.78;4952507;28;20220;-54
2022/03/17 02:55:20;;;;;;;25.20;22.43;;;;;;;2.52;100.00;97749.00;4982769;28;20216;-57
2022/03/17 02:57:50;;;;;;;26.03;22.57;;;;;;;2.51;100.00;97749.94;4983912;28;20858;-54
2022/03/17 03:00:18;;;;;;;24.70;21.20;;;;;;;2.44;100.00;97755.66;4962128;28;20213;-55
2022/03/17 03:02:46;;;;;;;25.30;21.63;;;;;;;2.45;100.00;97761.72;4985391;28;20205;-53
2022/03/17 03:05:19;;;;;;;27.17;23.50;;;;;;;2.46;100.00;97755.53;4976735;28;20201;-56
2022/03/17 03:07:48;;;;;;;24.23;21.63;;;;;;;2.43;100.00;97764.47;4942119;28;20355;-57
2022/03/17 03:10:16;;;;;;;25.80;22.87;;;;;;;2.57;100.00;97758.16;4988140;28;20227;-55
2022/03/17 03:12:44;;;;;;;27.77;23.27;;;;;;;2.56;100.00;97751.28;4984377;28;20534;-57
2022/03/17 03:15:14;;;;;;;30.07;22.73;;;;;;;2.40;100.00;97749.00;4969648;28;20229;-57
2022/03/17 03:17:42;;;;;;;25.83;23.03;;;;;;;2.43;100.00;97753.16;4988840;28;20224;-54
2022/03/17 03:20:12;;;;;;;23.17;20.53;;;;;;;2.40;100.00;97741.16;4989576;28;22639;-56
2022/03/17 03:22:40;;;;;;;28.03;22.67;;;;;;;2.51;100.00;97748.19;4934803;28;20209;-57
2022/03/17 03:25:10;;;;;;;24.47;21.23;;;;;;;2.42;100.00;97747.09;4988939;28;20240;-56
2022/03/17 03:27:40;;;;;;;30.43;22.43;;;;;;;2.59;100.00;97745.78;4990632;28;20228;-54
2022/03/17 03:30:11;;;;;;;27.10;21.63;;;;;;;2.65;100.00;97747.13;4973595;28;20231;-55
2022/03/17 03:32:42;;;;;;;24.63;21.93;;;;;;;2.56;100.00;97753.88;4986186;28;20224;-56
2022/03/17 03:37:56;;;;;;;25.27;22.57;;;;;;;2.75;100.00;97747.19;4929832;28;20240;-53
2022/03/17 03:40:24;;;;;;;28.37;22.70;;;;;;;2.83;100.00;97752.66;4983374;28;20741;-55
2022/03/17 03:42:52;;;;;;;26.50;22.97;;;;;;;2.74;100.00;97742.91;4985306;28;20734;-55
2022/03/17 03:45:20;;;;;;;31.90;24.00;;;;;;;2.80;100.00;97746.84;4974255;28;20897;-52
2022/03/17 03:47:50;;;;;;;29.63;24.17;;;;;;;2.88;100.00;97755.78;4980735;28;20356;-58
2022/03/17 03:50:18;;;;;;;27.37;24.33;;;;;;;2.93;100.00;97744.91;4986056;28;20229;-54
2022/03/17 03:52:46;;;;;;;25.07;22.40;;;;;;;2.97;100.00;97750.75;4969651;28;20212;-56
2022/03/17 03:55:14;;;;;;;29.33;23.13;;;;;;;2.84;100.00;97740.41;4957090;28;20212;-55
2022/03/17 03:57:42;;;;;;;32.47;24.83;;;;;;;2.76;100.00;97761.94;4988213;28;20869;-55
2022/03/17 04:00:24;;;;;;;28.53;23.67;;;;;;;2.68;100.00;97757.34;4989466;28;20208;-54
2022/03/17 04:02:55;;;;;;;28.40;24.47;;;;;;;2.71;100.00;97757.09;4974207;28;20220;-53
2022/03/17 04:05:24;;;;;;;28.13;23.77;;;;;;;2.71;100.00;97749.25;4985547;28;20692;-52
2022/03/17 04:07:55;;;;;;;28.53;24.87;;;;;;;2.79;100.00;97756.47;4972087;28;20236;-54
2022/03/17 04:10:23;;;;;;;27.83;23.57;;;;;;;2.85;100.00;97771.72;4947817;28;20671;-54
2022/03/17 04:12:51;;;;;;;33.53;22.93;;;;;;;2.75;100.00;97762.91;4962166;28;21060;-53
2022/03/17 04:15:19;;;;;;;26.90;23.10;;;;;;;2.68;100.00;97753.88;4996155;28;20758;-49
2022/03/17 04:17:49;;;;;;;28.93;23.73;;;;;;;2.42;100.00;97749.72;4971441;28;20229;-54
2022/03/17 04:20:18;;;;;;;25.70;22.50;;;;;;;2.35;100.00;97752.91;4985421;28;20197;-54
2022/03/17 04:22:46;;;;;;;34.13;23.93;;;;;;;2.31;100.00;97754.94;4972246;28;20216;-54
2022/03/17 04:25:14;;;;;;;26.57;23.23;;;;;;;2.44;100.00;97760.03;4944115;28;21097;-55
2022/03/17 04:27:42;;;;;;;26.60;23.57;;;;;;;2.38;100.00;97765.75;4992037;28;20229;-58
2022/03/17 04:30:11;;;;;;;29.03;24.00;;;;;;;2.28;100.00;97749.97;4992049;28;20914;-56
2022/03/17 04:32:40;;;;;;;32.03;23.70;;;;;;;2.57;100.00;97752.94;4935860;28;21006;-52
2022/03/17 04:35:09;;;;;;;29.67;24.13;;;;;;;2.75;100.00;97755.06;4988756;28;20463;-48
2022/03/17 04:37:38;;;;;;;30.33;26.00;;;;;;;2.72;100.00;97755.28;4962014;28;20340;-52
2022/03/17 04:40:07;;;;;;;30.87;23.53;;;;;;;2.59;100.00;97758.88;4972018;28;20571;-50
2022/03/17 04:42:35;;;;;;;32.30;25.60;;;;;;;2.64;100.00;97763.72;4941561;28;20308;-53
2022/03/17 04:45:04;;;;;;;27.23;23.20;;;;;;;2.83;100.00;97763.13;4970614;28;20241;-55
2022/03/17 04:47:32;;;;;;;27.83;23.37;;;;;;;2.65;100.00;97756.72;4966213;28;20341;-60
2022/03/17 04:50:00;;;;;;;29.77;24.80;;;;;;;2.60;100.00;97771.00;4961839;28;20709;-56
2022/03/17 04:55:15;;;;;;;27.40;24.17;;;;;;;2.42;100.00;97778.50;4988022;28;20816;-52
2022/03/17 04:57:46;;;;;;;25.37;21.70;;;;;;;2.29;100.00;97783.00;4926566;28;20231;-54
2022/03/17 05:00:15;;;;;;;31.50;25.67;;;;;;;2.22;100.00;97780.00;4989940;28;20193;-55
2022/03/17 05:02:43;;;;;;;27.60;24.57;;;;;;;2.19;100.00;97788.09;4967829;28;20216;-56
2022/03/17 05:05:11;;;;;;;26.70;22.90;;;;;;;2.14;100.00;97790.22;4967566;28;20219;-52
2022/03/17 05:07:39;;;;;;;29.20;24.83;;;;;;;2.10;100.00;97802.69;4985439;28;20319;-60
2022/03/17 05:10:09;;;;;;;31.53;25.43;;;;;;;2.21;100.00;97814.97;4966011;28;20328;-54
2022/03/17 05:12:39;;;;;;;28.57;25.13;;;;;;;2.21;100.00;97808.88;4935493;28;20440;-54
2022/03/17 05:15:07;;;;;;;29.67;24.83;;;;;;;2.13;100.00;97806.84;4989296;28;20774;-56
2022/03/17 05:17:39;;;;;;;29.33;22.83;;;;;;;2.07;100.00;97805.53;4968022;28;20224;-56
2022/03/17 05:20:11;;;;;;;28.23;24.07;;;;;;;2.07;100.00;97821.22;4968775;28;20785;-54
2022/03/17 05:22:39;;;;;;;26.93;23.10;;;;;;;2.09;100.00;97816.69;4986318;28;20314;-58
2022/03/17 05:25:08;;;;;;;29.40;24.20;;;;;;;1.97;100.00;97822.84;4969711;28;20221;-57
2022/03/17 05:27:38;;;;;;;28.17;23.50;;;;;;;1.83;100.00;97832.53;4943663;28;20355;-52
2022/03/17 05:30:07;;;;;;;29.50;24.73;;;;;;;2.08;100.00;97828.09;4985322;28;20233;-57
2022/03/17 05:32:35;;;;;;;27.37;24.27;;;;;;;1.83;100.00;97835.13;4965589;28;20209;-54
2022/03/17 05:35:03;;;;;;;27.57;23.80;;;;;;;1.88;100.00;97825.19;4989046;28;20201;-57
2022/03/17 05:37:31;;;;;;;32.33;24.27;;;;;;;1.81;100.00;97825.75;4969116;28;20424;-56
2022/03/17 05:39:59;;;;;;;27.23;23.90;;;;;;;1.76;100.00;97839.16;4981123;28;20204;-51
2022/03/17 05:42:27;;;;;;;31.43;27.03;;;;;;;1.84;100.00;97838.59;4948039;28;20240;-56
2022/03/17 05:44:57;;;;;;;31.17;26.13;;;;;;;1.96;100.00;97842.91;4982781;28;20208;-52
2022/03/17 05:47:25;;;;;;;32.93;25.33;;;;;;;1.90;100.00;97850.41;4981805;28;20224;-53
2022/03/17 05:49:53;;;;;;;29.60;24.83;;;;;;;1.92;100.00;97851.94;4979598;28;20224;-57
2022/03/17 05:52:21;;;;;;;31.97;25.00;;;;;;;1.93;100.00;97856.22;4975703;28;20211;-52
2022/03/17 05:54:49;;;;;;;33.23;27.27;;;;;;;2.09;100.00;97857.72;4991325;28;20207;-52
2022/03/17 05:57:17;;;;;;;29.57;24.70;;;;;;;2.04;100.00;97855.44;4959652;28;20581;-56
2022/03/17 05:59:45;;;;;;;28.90;23.77;;;;;;;2.06;100.00;97852.69;4960105;28;21771;-54
2022/03/17 06:02:15;;;;;;;33.80;26.07;;;;;;;2.03;100.00;97854.56;4987214;28;20209;-59
2022/03/17 06:04:44;;;;;;;32.27;27.43;;;;;;;2.11;100.00;97859.25;4969167;28;20209;-53
2022/03/17 06:07:12;;;;;;;30.27;26.17;;;;;;;2.26;100.00;97852.03;4972191;28;20681;-57
2022/03/17 06:09:40;;;;;;;26.80;23.80;;;;;;;2.14;100.00;97856.41;4981679;28;20204;-58
2022/03/17 06:12:09;;;;;;;29.80;24.43;;;;;;;2.13;100.00;97859.16;4946015;28;20213;-55
2022/03/17 06:14:37;;;;;;;30.30;25.40;;;;;;;2.15;100.00;97857.25;4949065;28;20233;-49
2022/03/17 06:17:05;;;;;;;30.93;24.87;;;;;;;2.17;100.00;97861.41;4977427;28;20197;-55
2022/03/17 06:19:35;;;;;;;32.10;25.00;;;;;;;2.29;100.00;97869.31;4965224;28;21462;-52
2022/03/17 06:22:04;;;;;;;34.70;26.70;;;;;;;2.35;100.00;97863.59;4981977;28;20205;-54
2022/03/17 06:24:32;;;;;;;30.00;25.30;;;;;;;2.42;100.00;97867.41;4978373;28;20409;-52
2022/03/17 06:27:00;;;;;;;29.63;25.53;;;;;;;2.36;100.00;97875.72;4968992;28;20217;-51
2022/03/17 06:29:28;;;;;;;29.47;24.60;;;;;;;2.41;100.00;97870.13;4941698;28;20840;-55
2022/03/17 06:31:56;;;;;;;30.10;25.77;;;;;;;2.49;100.00;97870.41;4984052;28;20724;-55
2022/03/17 06:34:24;;;;;;;28.03;24.20;;;;;;;2.43;100.00;97865.63;4953795;28;20201;-48
2022/03/17 06:36:54;;;;;;;30.63;25.40;;;;;;;2.66;100.00;97879.59;4984731;28;20565;-54
2022/03/17 06:39:22;;;;;;;28.53;25.47;;;;;;;2.67;100.00;97885.66;4971009;28;20607;-50
2022/03/17 06:41:50;;;;;;;30.57;25.00;;;;;;;2.84;100.00;97890.47;4971092;28;20618;-53
2022/03/17 06:44:17;;;;;;;28.57;24.80;;;;;;;2.82;100.00;97886.28;4984155;28;20875;-50
2022/03/17 06:46:45;;;;;;;29.00;25.10;;;;;;;2.81;100.00;97888.03;4952057;28;20213;-56
2022/03/17 06:49:13;;;;;;;31.13;25.53;;;;;;;2.89;100.00;97900.56;4966379;28;20234;-55
2022/03/17 06:51:41;;;;;;;31.90;25.10;;;;;;;2.89;100.00;97901.41;4968251;28;20236;-53
2022/03/17 06:54:11;;;;;;;29.17;25.00;;;;;;;2.97;100.00;97895.56;4972991;28;20794;-52
2022/03/17 06:56:39;;;;;;;28.27;24.10;;;;;;;3.02;100.00;97897.81;4985763;28;20589;-50
2022/03/17 06:59:06;;;;;;;32.20;25.73;;;;;;;3.00;100.00;97904.97;4965575;28;20243;-51
2022/03/17 07:01:34;;;;;;;28.13;24.07;;;;;;;3.19;100.00;97902.56;4948701;28;20714;-56
2022/03/17 07:04:03;;;;;;;28.97;25.33;;;;;;;3.13;100.00;97900.44;4969857;28;20697;-51
2022/03/17 07:06:31;;;;;;;30.13;24.93;;;;;;;3.43;100.00;97904.25;4963944;28;20720;-50
2022/03/17 07:08:58;;;;;;;30.63;24.30;;;;;;;3.55;100.00;97904.22;4990445;28;20225;-52
2022/03/17 07:11:28;;;;;;;29.70;26.23;;;;;;;3.63;100.00;97904.47;4969697;28;20413;-55
2022/03/17 07:13:56;;;;;;;30.67;26.57;;;;;;;3.62;100.00;97911.47;4966136;28;20673;-55
2022/03/17 07:16:24;;;;;;;33.20;25.20;;;;;;;3.87;100.00;97916.53;4981945;28;20208;-53
2022/03/17 07:18:52;;;;;;;28.50;25.37;;;;;;;3.94;100.00;97915.09;4946621;28;20224;-54
2022/03/17 07:21:20;;;;;;;30.50;26.47;;;;;;;4.09;100.00;97914.81;4953363;28;20428;-52
2022/03/17 07:23:48;;;;;;;32.57;25.60;;;;;;;3.97;100.00;97912.22;4987648;28;20201;-55
2022/03/17 07:26:16;;;;;;;29.13;25.13;;;;;;;4.15;100.00;97917.75;4970586;28;20411;-52
2022/03/17 07:28:46;;;;;;;30.20;24.80;;;;;;;4.36;100.00;97911.72;4969134;28;20321;-51
2022/03/17 07:31:15;;;;;;;29.53;24.67;;;;;;;4.54;100.00;97911.13;4984641;28;20693;-52
2022/03/17 07:33:43;;;;;;;28.93;24.47;;;;;;;4.73;100.00;97926.19;4946795;28;20218;-54
2022/03/17 07:36:11;;;;;;;28.80;25.67;;;;;;;4.73;100.00;97919.16;4956512;28;20596;-55
2022/03/17 07:38:39;;;;;;;28.33;24.77;;;;;;;4.74;100.00;97920.00;4988278;28;20241;-56
2022/03/17 07:41:07;;;;;;;30.20;25.43;;;;;;;5.01;100.00;97910.72;4978329;28;20607;-53
2022/03/17 07:43:35;;;;;;;30.13;24.27;;;;;;;5.01;100.00;97913.34;4986733;28;20213;-50
2022/03/17 07:46:05;;;;;;;27.50;24.53;;;;;;;5.12;100.00;97915.06;4975554;28;20221;-54
2022/03/17 07:48:33;;;;;;;28.13;24.73;;;;;;;5.10;100.00;97906.50;4948044;28;21029;-52
2022/03/17 07:51:01;;;;;;;29.33;25.17;;;;;;;5.46;100.00;97912.97;4969137;28;20233;-55
2022/03/17 07:53:29;;;;;;;30.10;26.90;;;;;;;5.58;100.00;97916.34;4970046;28;20409;-55
2022/03/17 07:55:58;;;;;;;27.57;24.70;;;;;;;5.65;100.00;97914.03;4985722;28;20279;-52
2022/03/17 07:58:26;;;;;;;30.70;26.57;;;;;;;5.69;100.00;97922.50;4971864;28;20234;-54
2022/03/17 08:00:54;;;;;;;32.27;27.63;;;;;;;5.94;100.00;97927.22;4972853;28;20663;-55
2022/03/17 08:03:24;;;;;;;27.00;23.53;;;;;;;6.11;100.00;97927.56;4941850;28;21541;-55
2022/03/17 08:05:52;;;;;;;27.57;24.47;;;;;;;6.12;100.00;97931.00;4976192;28;20271;-53
2022/03/17 08:08:21;;;;;;;30.20;25.63;;;;;;;5.93;100.00;97937.91;4976978;28;20228;-55
2022/03/17 08:10:49;;;;;;;27.33;24.50;;;;;;;6.26;100.00;97935.88;4987932;28;20201;-56
2022/03/17 08:13:17;;;;;;;27.17;23.90;;;;;;;6.12;100.00;97929.22;4972062;28;20346;-54
2022/03/17 08:15:44;;;;;;;27.63;23.17;;;;;;;6.12;100.00;97931.00;4971389;28;20598;-56
2022/03/17 08:18:13;;;;;;;27.60;24.67;;;;;;;6.20;100.00;97932.00;4985239;28;20323;-55
2022/03/17 08:20:42;;;;;;;28.83;25.57;;;;;;;6.03;100.00;97928.25;4936469;28;20235;-52
2022/03/17 08:23:11;;;;;;;28.50;25.30;;;;;;;6.27;100.00;97934.91;4985976;28;20204;-53
2022/03/17 08:25:39;;;;;;;27.73;24.73;;;;;;;6.40;100.00;97934.63;4973411;28;20235;-55
2022/03/17 08:28:08;;;;;;;29.27;24.20;;;;;;;6.60;100.00;97935.44;4976324;28;20233;-54
2022/03/17 08:30:36;;;;;;;28.23;24.47;;;;;;;6.71;100.00;97931.81;4987847;28;20205;-51
2022/03/17 08:33:05;;;;;;;28.17;25.30;;;;;;;6.65;100.00;97937.66;4974843;28;20676;-53
2022/03/17 08:35:33;;;;;;;28.40;25.37;;;;;;;6.70;100.00;97931.97;4945769;28;20456;-53
2022/03/17 08:38:02;;;;;;;26.97;24.17;;;;;;;7.01;100.00;97922.06;4967429;28;20233;-53
2022/03/17 08:40:30;;;;;;;31.83;24.40;;;;;;;7.06;100.00;97925.09;4975801;28;20326;-54
2022/03/17 08:42:58;;;;;;;27.63;24.83;;;;;;;7.10;100.00;97928.28;4972457;28;20642;-55
2022/03/17 08:51:09;;;;;;;27.97;24.97;;;;;;;7.22;100.00;97942.13;4864509;29;20228;-55
2022/03/17 08:53:38;;;;;;;29.40;25.30;;;;;;;7.23;100.00;97939.34;4908603;29;20220;-58
2022/03/17 08:56:06;;;;;;;27.63;24.63;;;;;;;7.49;100.00;97941.31;4900339;29;20611;-50
2022/03/17 08:58:35;;;;;;;28.50;25.43;;;;;;;7.63;100.00;97944.44;4901555;29;20223;-52
2022/03/17 09:01:03;;;;;;;28.77;25.70;;;;;;;7.62;100.00;97941.00;4910182;29;20247;-54
2022/03/17 09:03:32;;;;;;;28.23;25.20;;;;;;;7.34;100.00;97940.97;4894192;29;20208;-51
2022/03/17 09:06:01;;;;;;;30.27;25.87;;;;;;;7.43;100.00;97944.53;4897274;29;20271;-54
2022/03/17 09:08:29;;;;;;;31.00;25.90;;;;;;;7.91;100.00;97944.44;4868228;29;20577;-54
2022/03/17 09:10:58;;;;;;;30.17;26.23;;;;;;;8.02;100.00;97949.50;4903280;29;20207;-55
2022/03/17 09:13:28;;;;;;;28.17;25.23;;;;;;;8.18;100.00;97946.19;4896413;29;20467;-58
2022/03/17 09:15:56;;;;;;;29.70;26.57;;;;;;;8.18;100.00;97948.03;4931182;28;20376;-55
2022/03/17 09:18:27;;;;;;;29.70;25.70;;;;;;;8.37;100.00;97941.78;4904826;28;20265;-55
2022/03/17 09:20:57;;;;;;;26.23;23.47;;;;;;;8.42;100.00;97958.00;4931551;28;20231;-54
2022/03/17 09:23:25;;;;;;;26.73;24.00;;;;;;;8.64;100.00;97956.72;4903344;28;20229;-54
2022/03/17 09:25:54;;;;;;;28.40;25.10;;;;;;;8.09;100.00;97955.84;4967427;28;20295;-53
2022/03/17 09:28:26;;;;;;;30.67;26.13;;;;;;;8.20;100.00;97952.16;4966967;28;20259;-49
2022/03/17 09:30:54;;;;;;;27.97;24.57;;;;;;;8.56;100.00;97955.81;4989075;28;20295;-54
2022/03/17 09:33:25;;;;;;;29.57;24.70;;;;;;;8.53;100.00;97951.69;4967802;28;20995;-53
2022/03/17 09:35:54;;;;;;;26.33;23.50;;;;;;;8.30;100.00;97948.63;4983804;28;21238;-58
2022/03/17 09:38:22;;;;;;;29.13;24.67;;;;;;;8.60;100.00;97949.25;4920190;28;20364;-55
2022/03/17 09:40:50;;;;;;;27.20;24.30;;;;;;;8.32;100.00;97952.78;4986804;28;20673;-54
2022/03/17 09:43:22;;;;;;;25.90;23.17;;;;;;;8.31;100.00;97948.47;4955019;28;20681;-53
2022/03/17 09:45:54;;;;;;;27.17;24.23;;;;;;;8.37;100.00;97947.88;4989170;28;20236;-54
2022/03/17 09:48:24;;;;;;;26.67;23.80;;;;;;;8.67;100.00;97952.94;4973210;28;20460;-53
2022/03/17 09:50:57;;;;;;;25.63;23.03;;;;;;;8.86;100.00;97951.09;4988683;28;20201;-55
2022/03/17 09:53:28;;;;;;;25.17;22.07;;;;;;;8.74;100.00;97953.16;4947334;28;20790;-53
2022/03/17 09:55:56;;;;;;;25.50;22.67;;;;;;;8.85;100.00;97946.81;4974833;28;20279;-51
2022/03/17 09:58:24;;;;;;;27.13;22.97;;;;;;;8.20;100.00;97954.81;4959287;28;20411;-55
2022/03/17 10:00:55;;;;;;;26.23;23.40;;;;;;;8.68;100.00;97952.78;4989506;28;20292;-55
2022/03/17 10:03:25;;;;;;;27.47;23.87;;;;;;;9.00;100.00;97961.09;4987801;28;20434;-51
2022/03/17 10:05:55;;;;;;;24.80;22.10;;;;;;;9.11;100.00;97962.66;4972960;28;20212;-55
2022/03/17 10:08:24;;;;;;;25.63;22.90;;;;;;;9.38;100.00;97961.66;4943862;28;21351;-52
2022/03/17 10:10:52;;;;;;;25.47;22.87;;;;;;;9.34;100.00;97960.31;4975800;28;20379;-56
2022/03/17 10:13:23;;;;;;;26.90;24.07;;;;;;;9.37;100.00;97959.19;4954012;28;20308;-55
2022/03/17 10:18:46;;;;;;;26.63;23.97;;;;;;;9.43;100.00;97965.66;5063278;27;21134;-54
2022/03/17 10:21:17;;;;;;;25.83;23.10;;;;;;;9.18;100.00;97969.00;5040581;28;20202;-55
2022/03/17 10:23:47;;;;;;;27.83;24.83;;;;;;;9.26;100.00;97965.56;5064713;28;20304;-52
2022/03/17 10:26:31;;;;;;;26.70;23.90;;;;;;;9.16;100.00;97964.88;5000892;28;20718;-55
2022/03/17 10:29:15;;;;;;;25.53;22.80;;;;;;;9.23;100.00;97958.78;5043941;28;20230;-53
2022/03/17 10:32:01;;;;;;;25.73;23.03;;;;;;;9.02;100.00;97969.72;5063407;28;20199;-51
2022/03/17 10:34:33;;;;;;;25.50;22.77;;;;;;;9.11;100.00;97968.81;5060947;28;20376;-52
2022/03/17 10:37:09;;;;;;;29.43;22.80;;;;;;;9.33;100.00;97968.44;5042783;28;20231;-59
2022/03/17 10:39:45;;;;;;;28.43;23.57;;;;;;;9.51;100.00;97968.38;5061905;28;21276;-56
2022/03/17 10:42:16;;;;;;;27.53;23.47;;;;;;;9.48;100.00;97960.75;4986870;28;20700;-51
2022/03/17 10:44:49;;;;;;;24.90;22.30;;;;;;;9.41;100.00;97968.47;5047293;28;20203;-54
2022/03/17 10:47:24;;;;;;;25.53;22.90;;;;;;;9.57;100.00;97975.66;5057353;28;20728;-53
2022/03/17 10:50:08;;;;;;;25.80;23.20;;;;;;;9.71;100.00;97976.88;5059445;28;20203;-56
2022/03/17 10:52:48;;;;;;;28.97;24.63;;;;;;;9.99;100.00;97974.84;5056677;28;20242;-53
2022/03/17 10:55:21;;;;;;;28.00;23.53;;;;;;;10.17;100.00;97975.72;5017339;28;20630;-55
2022/03/17 10:57:50;;;;;;;26.37;23.57;;;;;;;10.33;98.03;97966.97;5041389;28;20253;-57
2022/03/17 11:00:21;;;;;;;25.50;22.80;;;;;;;10.33;97.56;97970.44;5040200;28;20427;-58
2022/03/17 11:02:51;;;;;;;25.87;21.93;;;;;;;10.47;94.40;97973.50;5061938;28;20819;-52
2022/03/17 11:05:21;;;;;;;26.77;23.93;;;;;;;10.49;95.38;97974.16;5055913;28;20198;-55
2022/03/17 11:07:51;;;;;;;27.63;24.00;;;;;;;10.41;96.19;97977.59;5043722;28;20222;-52
2022/03/17 11:10:20;;;;;;;25.73;23.03;;;;;;;10.45;98.43;97978.13;5056742;28;20198;-57
2022/03/17 11:12:52;;;;;;;26.33;23.60;;;;;;;10.46;95.77;97985.06;5019612;28;20210;-57
2022/03/17 11:15:28;;;;;;;25.70;23.20;;;;;;;10.45;97.38;97981.59;5038237;28;20302;-56
2022/03/17 11:18:02;;;;;;;29.03;24.43;;;;;;;10.32;100.00;97974.06;5048594;28;20299;-51
2022/03/17 11:20:33;;;;;;;26.07;23.33;;;;;;;10.26;100.00;97977.38;5060214;28;20343;-51
2022/03/17 11:23:10;;;;;;;26.00;23.30;;;;;;;10.59;99.27;97974.81;5043445;28;20293;-56
2022/03/17 11:25:39;;;;;;;24.17;21.70;;;;;;;10.75;96.67;97978.44;5062086;28;20678;-50
2022/03/17 11:28:07;;;;;;;25.33;21.90;;;;;;;10.59;94.90;97982.75;5010873;28;20313;-54
2022/03/17 11:30:43;;;;;;;26.60;23.90;;;;;;;10.60;93.88;97987.06;5042135;28;20439;-56
2022/03/17 11:33:22;;;;;;;25.50;23.00;;;;;;;10.84;95.60;97993.38;5034283;28;20210;-54
2022/03/17 11:35:59;;;;;;;24.53;21.93;;;;;;;10.31;99.11;97990.97;5048254;28;20230;-57
2022/03/17 11:38:30;;;;;;;25.57;22.87;;;;;;;10.49;92.25;97985.56;5029363;28;20806;-56
2022/03/17 11:41:13;;;;;;;26.40;23.23;;;;;;;10.49;88.26;97987.41;5041672;28;20322;-57
2022/03/17 11:43:46;;;;;;;24.90;22.27;;;;;;;10.60;95.11;97989.72;5045768;28;20196;-54